sensor_id;sensor_type;location;lat;lon;timestamp;temperature;humidity
2050;DHT22;8478;49.208;8.806;2023-07-31T00:02:06;19.80;99.90
2050;DHT22;8478;49.208;8.806;2023-07-31T00:04:32;19.80;99.90
2050;DHT22;8478;49.208;8.806;2023-07-31T00:06:58;19.80;99.90
2050;DHT22;8478;49.208;8.806;2023-07-31T00:09:23;19.80;99.90
2050;DHT22;8478;49.208;8.806;2023-07-31T00:11:49;19.80;99.90
2050;DHT22;8478;49.208;8.806;2023-07-31T00:14:15;19.80;99.90
2050;DHT22;8478;49.208;8.806;2023-07-31T00:16:40;19.80;99.90
2050;DHT22;8478;49.208;8.806;2023-07-31T00:19:06;19.80;99.90
2050;DHT22;8478;49.208;8.806;2023-07-31T00:21:31;19.80;99.90
2050;DHT22;8478;49.208;8.806;2023-07-31T00:23:57;19.80;99.90
2050;DHT22;8478;49.208;8.806;2023-07-31T00:26:23;19.80;99.90
2050;DHT22;8478;49.208;8.806;2023-07-31T00:28:48;19.80;99.90
2050;DHT22;8478;49.208;8.806;2023-07-31T00:31:14;19.80;99.90
2050;DHT22;8478;49.208;8.806;2023-07-31T00:33:40;19.70;99.90
2050;DHT22;8478;49.208;8.806;2023-07-31T00:36:05;19.80;99.90
2050;DHT22;8478;49.208;8.806;2023-07-31T00:38:31;19.80;99.90
2050;DHT22;8478;49.208;8.806;2023-07-31T00:40:56;19.80;99.90
2050;DHT22;8478;49.208;8.806;2023-07-31T00:43:22;19.70;99.90
2050;DHT22;8478;49.208;8.806;2023-07-31T00:45:48;19.80;99.90
2050;DHT22;8478;49.208;8.806;2023-07-31T00:48:14;19.70;99.90
2050;DHT22;8478;49.208;8.806;2023-07-31T00:50:39;19.70;99.90
2050;DHT22;8478;49.208;8.806;2023-07-31T00:53:05;19.70;99.90
2050;DHT22;8478;49.208;8.806;2023-07-31T00:55:31;19.70;99.90
2050;DHT22;8478;49.208;8.806;2023-07-31T00:57:57;19.70;99.90
2050;DHT22;8478;49.208;8.806;2023-07-31T01:00:23;19.70;99.90
2050;DHT22;8478;49.208;8.806;2023-07-31T01:02:50;19.80;99.90
2050;DHT22;8478;49.208;8.806;2023-07-31T01:05:16;19.80;99.90
2050;DHT22;8478;49.208;8.806;2023-07-31T01:07:49;19.70;99.90
2050;DHT22;8478;49.208;8.806;2023-07-31T01:10:21;19.70;99.90
2050;DHT22;8478;49.208;8.806;2023-07-31T01:12:52;19.70;99.90
2050;DHT22;8478;49.208;8.806;2023-07-31T01:15:18;19.70;99.90
2050;DHT22;8478;49.208;8.806;2023-07-31T01:17:44;19.80;99.90
2050;DHT22;8478;49.208;8.806;2023-07-31T01:20:14;19.80;99.90
2050;DHT22;8478;49.208;8.806;2023-07-31T01:29:01;19.70;99.90
2050;DHT22;8478;49.208;8.806;2023-07-31T01:31:30;19.70;99.90
2050;DHT22;8478;49.208;8.806;2023-07-31T01:33:59;19.70;99.90
2050;DHT22;8478;49.208;8.806;2023-07-31T01:36:25;19.70;99.90
2050;DHT22;8478;49.208;8.806;2023-07-31T01:38:51;19.70;99.90
2050;DHT22;8478;49.208;8.806;2023-07-31T01:41:20;19.70;99.90
2050;DHT22;8478;49.208;8.806;2023-07-31T01:43:46;19.70;99.90
2050;DHT22;8478;49.208;8.806;2023-07-31T01:46:12;19.70;99.90
2050;DHT22;8478;49.208;8.806;2023-07-31T01:48:37;19.70;99.90
2050;DHT22;8478;49.208;8.806;2023-07-31T01:51:03;19.70;99.90
2050;DHT22;8478;49.208;8.806;2023-07-31T01:53:31;19.70;99.90
2050;DHT22;8478;49.208;8.806;2023-07-31T01:55:56;19.70;99.90
2050;DHT22;8478;49.208;8.806;2023-07-31T01:58:22;19.70;99.90
2050;DHT22;8478;49.208;8.806;2023-07-31T02:00:48;19.70;99.90
2050;DHT22;8478;49.208;8.806;2023-07-31T02:03:13;19.70;99.90
2050;DHT22;8478;49.208;8.806;2023-07-31T02:05:49;19.70;99.90
2050;DHT22;8478;49.208;8.806;2023-07-31T02:08:15;19.70;99.90
2050;DHT22;8478;49.208;8.806;2023-07-31T02:10:41;19.70;99.90
2050;DHT22;8478;49.208;8.806;2023-07-31T02:13:07;19.70;99.90
2050;DHT22;8478;49.208;8.806;2023-07-31T02:15:33;19.70;99.90
2050;DHT22;8478;49.208;8.806;2023-07-31T02:17:58;19.70;99.90
2050;DHT22;8478;49.208;8.806;2023-07-31T02:20:24;19.70;99.90
2050;DHT22;8478;49.208;8.806;2023-07-31T02:22:50;19.60;99.90
2050;DHT22;8478;49.208;8.806;2023-07-31T02:25:16;19.70;99.90
2050;DHT22;8478;49.208;8.806;2023-07-31T02:27:41;19.70;99.90
2050;DHT22;8478;49.208;8.806;2023-07-31T02:30:07;19.70;99.90
2050;DHT22;8478;49.208;8.806;2023-07-31T02:32:33;19.70;99.90
2050;DHT22;8478;49.208;8.806;2023-07-31T02:34:59;19.70;99.90
2050;DHT22;8478;49.208;8.806;2023-07-31T02:37:25;19.70;99.90
2050;DHT22;8478;49.208;8.806;2023-07-31T02:39:51;19.60;99.90
2050;DHT22;8478;49.208;8.806;2023-07-31T02:42:17;19.70;99.90
2050;DHT22;8478;49.208;8.806;2023-07-31T02:44:42;19.60;99.90
2050;DHT22;8478;49.208;8.806;2023-07-31T02:47:08;19.60;99.90
2050;DHT22;8478;49.208;8.806;2023-07-31T02:49:34;19.60;99.90
2050;DHT22;8478;49.208;8.806;2023-07-31T02:51:59;19.70;99.90
2050;DHT22;8478;49.208;8.806;2023-07-31T02:54:25;19.60;99.90
2050;DHT22;8478;49.208;8.806;2023-07-31T02:56:50;19.60;99.90
2050;DHT22;8478;49.208;8.806;2023-07-31T02:59:17;19.60;99.90
2050;DHT22;8478;49.208;8.806;2023-07-31T03:01:43;19.60;99.90
2050;DHT22;8478;49.208;8.806;2023-07-31T03:04:08;19.60;99.90
2050;DHT22;8478;49.208;8.806;2023-07-31T03:06:34;19.60;99.90
2050;DHT22;8478;49.208;8.806;2023-07-31T03:09:00;19.60;99.90
2050;DHT22;8478;49.208;8.806;2023-07-31T03:11:25;19.60;99.90
2050;DHT22;8478;49.208;8.806;2023-07-31T03:13:51;19.60;99.90
2050;DHT22;8478;49.208;8.806;2023-07-31T03:16:17;19.60;99.90
2050;DHT22;8478;49.208;8.806;2023-07-31T03:18:43;19.60;99.90
2050;DHT22;8478;49.208;8.806;2023-07-31T03:21:08;19.60;99.90
2050;DHT22;8478;49.208;8.806;2023-07-31T03:23:34;19.60;99.90
2050;DHT22;8478;49.208;8.806;2023-07-31T03:26:01;19.60;99.90
2050;DHT22;8478;49.208;8.806;2023-07-31T03:28:29;19.60;99.90
2050;DHT22;8478;49.208;8.806;2023-07-31T03:30:54;19.60;99.90
2050;DHT22;8478;49.208;8.806;2023-07-31T03:33:20;19.60;99.90
2050;DHT22;8478;49.208;8.806;2023-07-31T03:35:46;19.60;99.90
2050;DHT22;8478;49.208;8.806;2023-07-31T03:38:12;19.60;99.90
2050;DHT22;8478;49.208;8.806;2023-07-31T03:40:37;19.60;99.90
2050;DHT22;8478;49.208;8.806;2023-07-31T03:43:03;19.60;99.90
2050;DHT22;8478;49.208;8.806;2023-07-31T03:45:29;19.60;99.90
2050;DHT22;8478;49.208;8.806;2023-07-31T03:47:54;19.60;99.90
2050;DHT22;8478;49.208;8.806;2023-07-31T03:50:20;19.60;99.90
2050;DHT22;8478;49.208;8.806;2023-07-31T03:52:46;19.60;99.90
2050;DHT22;8478;49.208;8.806;2023-07-31T03:55:12;19.60;99.90
2050;DHT22;8478;49.208;8.806;2023-07-31T03:57:38;19.60;99.90
2050;DHT22;8478;49.208;8.806;2023-07-31T04:00:04;19.60;99.90
2050;DHT22;8478;49.208;8.806;2023-07-31T04:02:29;19.60;99.90
2050;DHT22;8478;49.208;8.806;2023-07-31T04:04:55;19.60;99.90
2050;DHT22;8478;49.208;8.806;2023-07-31T04:07:21;19.60;99.90
2050;DHT22;8478;49.208;8.806;2023-07-31T04:09:46;19.60;99.90
2050;DHT22;8478;49.208;8.806;2023-07-31T04:12:12;19.60;99.90
2050;DHT22;8478;49.208;8.806;2023-07-31T04:14:37;19.60;99.90
2050;DHT22;8478;49.208;8.806;2023-07-31T04:17:03;19.60;99.90
2050;DHT22;8478;49.208;8.806;2023-07-31T04:19:29;19.60;99.90
2050;DHT22;8478;49.208;8.806;2023-07-31T04:21:54;19.60;99.90
2050;DHT22;8478;49.208;8.806;2023-07-31T04:24:20;19.60;99.90
2050;DHT22;8478;49.208;8.806;2023-07-31T04:26:53;19.60;99.90
2050;DHT22;8478;49.208;8.806;2023-07-31T04:29:19;19.60;99.90
2050;DHT22;8478;49.208;8.806;2023-07-31T04:31:45;19.50;99.90
2050;DHT22;8478;49.208;8.806;2023-07-31T04:34:11;19.60;99.90
2050;DHT22;8478;49.208;8.806;2023-07-31T04:36:39;19.50;99.90
2050;DHT22;8478;49.208;8.806;2023-07-31T04:39:05;19.50;99.90
2050;DHT22;8478;49.208;8.806;2023-07-31T04:41:31;19.50;99.90
2050;DHT22;8478;49.208;8.806;2023-07-31T04:43:56;19.50;99.90
2050;DHT22;8478;49.208;8.806;2023-07-31T04:46:22;19.50;99.90
2050;DHT22;8478;49.208;8.806;2023-07-31T04:48:50;19.50;99.90
2050;DHT22;8478;49.208;8.806;2023-07-31T04:51:16;19.50;99.90
2050;DHT22;8478;49.208;8.806;2023-07-31T04:53:42;19.50;99.90
2050;DHT22;8478;49.208;8.806;2023-07-31T04:56:07;19.50;99.90
2050;DHT22;8478;49.208;8.806;2023-07-31T04:58:33;19.50;99.90
2050;DHT22;8478;49.208;8.806;2023-07-31T05:00:59;19.50;99.90
2050;DHT22;8478;49.208;8.806;2023-07-31T05:03:24;19.50;99.90
2050;DHT22;8478;49.208;8.806;2023-07-31T05:05:50;19.50;99.90
2050;DHT22;8478;49.208;8.806;2023-07-31T05:08:16;19.50;99.90
2050;DHT22;8478;49.208;8.806;2023-07-31T05:10:43;19.50;99.90
2050;DHT22;8478;49.208;8.806;2023-07-31T05:13:09;19.50;99.90
2050;DHT22;8478;49.208;8.806;2023-07-31T05:15:34;19.50;99.90
2050;DHT22;8478;49.208;8.806;2023-07-31T05:18:00;19.50;99.90
2050;DHT22;8478;49.208;8.806;2023-07-31T05:20:26;19.50;99.90
2050;DHT22;8478;49.208;8.806;2023-07-31T05:22:53;19.50;99.90
2050;DHT22;8478;49.208;8.806;2023-07-31T05:25:18;19.50;99.90
2050;DHT22;8478;49.208;8.806;2023-07-31T05:27:44;19.50;99.90
2050;DHT22;8478;49.208;8.806;2023-07-31T05:30:10;19.50;99.90
2050;DHT22;8478;49.208;8.806;2023-07-31T05:32:35;19.50;99.90
2050;DHT22;8478;49.208;8.806;2023-07-31T05:35:01;19.50;99.90
2050;DHT22;8478;49.208;8.806;2023-07-31T05:37:27;19.50;99.90
2050;DHT22;8478;49.208;8.806;2023-07-31T05:39:52;19.50;99.90
2050;DHT22;8478;49.208;8.806;2023-07-31T05:42:18;19.50;99.90
2050;DHT22;8478;49.208;8.806;2023-07-31T05:44:44;19.50;99.90
2050;DHT22;8478;49.208;8.806;2023-07-31T05:47:09;19.40;99.90
2050;DHT22;8478;49.208;8.806;2023-07-31T05:49:35;19.40;99.90
2050;DHT22;8478;49.208;8.806;2023-07-31T05:52:01;19.40;99.90
2050;DHT22;8478;49.208;8.806;2023-07-31T05:54:26;19.40;99.90
2050;DHT22;8478;49.208;8.806;2023-07-31T05:56:52;19.40;99.90
2050;DHT22;8478;49.208;8.806;2023-07-31T05:59:18;19.50;99.90
2050;DHT22;8478;49.208;8.806;2023-07-31T06:01:43;19.40;99.90
2050;DHT22;8478;49.208;8.806;2023-07-31T06:04:09;19.40;99.90
2050;DHT22;8478;49.208;8.806;2023-07-31T06:06:35;19.40;99.90
2050;DHT22;8478;49.208;8.806;2023-07-31T06:09:00;19.40;99.90
2050;DHT22;8478;49.208;8.806;2023-07-31T06:11:26;19.40;99.90
2050;DHT22;8478;49.208;8.806;2023-07-31T06:13:52;19.40;99.90
2050;DHT22;8478;49.208;8.806;2023-07-31T06:16:17;19.40;99.90
2050;DHT22;8478;49.208;8.806;2023-07-31T06:18:43;19.40;99.90
2050;DHT22;8478;49.208;8.806;2023-07-31T06:21:10;19.40;99.90
2050;DHT22;8478;49.208;8.806;2023-07-31T06:23:36;19.50;99.90
2050;DHT22;8478;49.208;8.806;2023-07-31T06:26:02;19.40;99.90
2050;DHT22;8478;49.208;8.806;2023-07-31T06:28:31;19.40;99.90
2050;DHT22;8478;49.208;8.806;2023-07-31T06:30:58;19.40;99.90
2050;DHT22;8478;49.208;8.806;2023-07-31T06:33:24;19.40;99.90
2050;DHT22;8478;49.208;8.806;2023-07-31T06:35:50;19.40;99.90
2050;DHT22;8478;49.208;8.806;2023-07-31T06:38:18;19.40;99.90
2050;DHT22;8478;49.208;8.806;2023-07-31T06:40:44;19.40;99.90
2050;DHT22;8478;49.208;8.806;2023-07-31T06:43:09;19.40;99.90
2050;DHT22;8478;49.208;8.806;2023-07-31T06:45:36;19.40;99.90
2050;DHT22;8478;49.208;8.806;2023-07-31T06:48:02;19.40;99.90
2050;DHT22;8478;49.208;8.806;2023-07-31T06:50:32;19.40;99.90
2050;DHT22;8478;49.208;8.806;2023-07-31T06:52:58;19.40;99.90
2050;DHT22;8478;49.208;8.806;2023-07-31T06:55:24;19.40;99.90
2050;DHT22;8478;49.208;8.806;2023-07-31T06:57:53;19.40;99.90
2050;DHT22;8478;49.208;8.806;2023-07-31T07:00:19;19.40;99.90
2050;DHT22;8478;49.208;8.806;2023-07-31T07:02:46;19.40;99.90
2050;DHT22;8478;49.208;8.806;2023-07-31T07:05:15;19.40;99.90
2050;DHT22;8478;49.208;8.806;2023-07-31T07:07:41;19.40;99.90
2050;DHT22;8478;49.208;8.806;2023-07-31T07:10:07;19.40;99.90
2050;DHT22;8478;49.208;8.806;2023-07-31T07:12:34;19.40;99.90
2050;DHT22;8478;49.208;8.806;2023-07-31T07:15:00;19.40;99.90
2050;DHT22;8478;49.208;8.806;2023-07-31T07:17:27;19.40;99.90
2050;DHT22;8478;49.208;8.806;2023-07-31T07:19:53;19.40;99.90
2050;DHT22;8478;49.208;8.806;2023-07-31T07:22:19;19.40;99.90
2050;DHT22;8478;49.208;8.806;2023-07-31T07:24:45;19.40;99.90
2050;DHT22;8478;49.208;8.806;2023-07-31T07:27:10;19.40;99.90
2050;DHT22;8478;49.208;8.806;2023-07-31T07:29:38;19.40;99.90
2050;DHT22;8478;49.208;8.806;2023-07-31T07:32:04;19.40;99.90
2050;DHT22;8478;49.208;8.806;2023-07-31T07:34:30;19.40;99.90
2050;DHT22;8478;49.208;8.806;2023-07-31T07:36:56;19.40;99.90
2050;DHT22;8478;49.208;8.806;2023-07-31T07:39:21;19.40;99.90
2050;DHT22;8478;49.208;8.806;2023-07-31T07:41:47;19.50;99.90
2050;DHT22;8478;49.208;8.806;2023-07-31T07:44:14;19.40;99.90
2050;DHT22;8478;49.208;8.806;2023-07-31T07:46:40;19.40;99.90
2050;DHT22;8478;49.208;8.806;2023-07-31T07:49:05;19.40;99.90
2050;DHT22;8478;49.208;8.806;2023-07-31T07:51:31;19.50;99.90
2050;DHT22;8478;49.208;8.806;2023-07-31T07:54:00;19.40;99.90
2050;DHT22;8478;49.208;8.806;2023-07-31T07:56:27;19.40;99.90
2050;DHT22;8478;49.208;8.806;2023-07-31T07:58:53;19.40;99.90
2050;DHT22;8478;49.208;8.806;2023-07-31T08:01:19;19.50;99.90
2050;DHT22;8478;49.208;8.806;2023-07-31T08:03:45;19.40;99.90
2050;DHT22;8478;49.208;8.806;2023-07-31T08:06:11;19.40;99.90
2050;DHT22;8478;49.208;8.806;2023-07-31T08:08:37;19.50;99.90
2050;DHT22;8478;49.208;8.806;2023-07-31T08:11:02;19.50;99.90
2050;DHT22;8478;49.208;8.806;2023-07-31T08:13:28;19.50;99.90
2050;DHT22;8478;49.208;8.806;2023-07-31T08:15:54;19.50;99.90
2050;DHT22;8478;49.208;8.806;2023-07-31T08:18:20;19.50;99.90
2050;DHT22;8478;49.208;8.806;2023-07-31T08:20:46;19.40;99.90
2050;DHT22;8478;49.208;8.806;2023-07-31T08:23:12;19.40;99.90
2050;DHT22;8478;49.208;8.806;2023-07-31T08:25:38;19.50;99.90
2050;DHT22;8478;49.208;8.806;2023-07-31T08:28:04;19.50;99.90
2050;DHT22;8478;49.208;8.806;2023-07-31T08:30:30;19.50;99.90
2050;DHT22;8478;49.208;8.806;2023-07-31T08:32:56;19.50;99.90
2050;DHT22;8478;49.208;8.806;2023-07-31T08:35:22;19.50;99.90
2050;DHT22;8478;49.208;8.806;2023-07-31T08:37:48;19.50;99.90
2050;DHT22;8478;49.208;8.806;2023-07-31T08:40:13;19.50;99.90
2050;DHT22;8478;49.208;8.806;2023-07-31T08:42:46;19.50;99.90
2050;DHT22;8478;49.208;8.806;2023-07-31T08:45:19;19.50;99.90
2050;DHT22;8478;49.208;8.806;2023-07-31T08:47:49;19.50;99.90
2050;DHT22;8478;49.208;8.806;2023-07-31T08:50:17;19.50;99.90
2050;DHT22;8478;49.208;8.806;2023-07-31T08:52:43;19.50;99.90
2050;DHT22;8478;49.208;8.806;2023-07-31T08:55:09;19.50;99.90
2050;DHT22;8478;49.208;8.806;2023-07-31T08:57:37;19.50;99.90
2050;DHT22;8478;49.208;8.806;2023-07-31T09:00:07;19.50;99.90
2050;DHT22;8478;49.208;8.806;2023-07-31T09:02:54;19.50;99.90
2050;DHT22;8478;49.208;8.806;2023-07-31T09:05:21;19.50;99.90
2050;DHT22;8478;49.208;8.806;2023-07-31T09:07:48;19.50;99.90
2050;DHT22;8478;49.208;8.806;2023-07-31T09:10:15;19.50;99.90
2050;DHT22;8478;49.208;8.806;2023-07-31T09:12:40;19.50;99.90
2050;DHT22;8478;49.208;8.806;2023-07-31T09:15:07;19.50;99.90
2050;DHT22;8478;49.208;8.806;2023-07-31T09:17:35;19.50;99.90
2050;DHT22;8478;49.208;8.806;2023-07-31T09:20:18;19.50;99.90
2050;DHT22;8478;49.208;8.806;2023-07-31T09:22:45;19.50;99.90
2050;DHT22;8478;49.208;8.806;2023-07-31T09:25:16;19.50;99.90
2050;DHT22;8478;49.208;8.806;2023-07-31T09:27:52;19.50;99.90
2050;DHT22;8478;49.208;8.806;2023-07-31T09:30:18;19.50;99.90
2050;DHT22;8478;49.208;8.806;2023-07-31T09:32:45;19.50;99.90
2050;DHT22;8478;49.208;8.806;2023-07-31T09:35:33;19.50;99.90
2050;DHT22;8478;49.208;8.806;2023-07-31T09:38:00;19.50;99.90
2050;DHT22;8478;49.208;8.806;2023-07-31T09:40:36;19.50;99.90
2050;DHT22;8478;49.208;8.806;2023-07-31T09:43:04;19.50;99.90
2050;DHT22;8478;49.208;8.806;2023-07-31T09:45:34;19.50;99.90
2050;DHT22;8478;49.208;8.806;2023-07-31T09:48:00;19.50;99.90
2050;DHT22;8478;49.208;8.806;2023-07-31T09:50:25;19.60;99.90
2050;DHT22;8478;49.208;8.806;2023-07-31T09:52:51;19.50;99.90
2050;DHT22;8478;49.208;8.806;2023-07-31T09:55:18;19.50;99.90
2050;DHT22;8478;49.208;8.806;2023-07-31T09:57:47;19.60;99.90
2050;DHT22;8478;49.208;8.806;2023-07-31T10:00:15;19.60;99.90
2050;DHT22;8478;49.208;8.806;2023-07-31T10:02:41;19.60;99.90
2050;DHT22;8478;49.208;8.806;2023-07-31T10:05:10;19.60;99.90
2050;DHT22;8478;49.208;8.806;2023-07-31T10:07:38;19.60;99.90
2050;DHT22;8478;49.208;8.806;2023-07-31T10:10:08;19.60;99.90
2050;DHT22;8478;49.208;8.806;2023-07-31T10:12:37;19.60;99.90
2050;DHT22;8478;49.208;8.806;2023-07-31T10:15:04;19.60;99.90
2050;DHT22;8478;49.208;8.806;2023-07-31T10:17:30;19.60;99.90
2050;DHT22;8478;49.208;8.806;2023-07-31T10:19:58;19.60;99.90
2050;DHT22;8478;49.208;8.806;2023-07-31T10:22:27;19.60;99.90
2050;DHT22;8478;49.208;8.806;2023-07-31T10:24:55;19.60;99.90
2050;DHT22;8478;49.208;8.806;2023-07-31T10:27:22;19.60;99.90
2050;DHT22;8478;49.208;8.806;2023-07-31T10:29:49;19.60;99.90
2050;DHT22;8478;49.208;8.806;2023-07-31T10:32:16;19.60;99.90
2050;DHT22;8478;49.208;8.806;2023-07-31T10:34:42;19.60;99.90
2050;DHT22;8478;49.208;8.806;2023-07-31T10:37:29;19.60;99.90
2050;DHT22;8478;49.208;8.806;2023-07-31T10:40:16;19.60;99.90
2050;DHT22;8478;49.208;8.806;2023-07-31T10:45:14;19.60;99.90
2050;DHT22;8478;49.208;8.806;2023-07-31T10:47:48;19.60;99.90
2050;DHT22;8478;49.208;8.806;2023-07-31T10:50:21;19.60;99.90
2050;DHT22;8478;49.208;8.806;2023-07-31T10:52:52;19.60;99.90
2050;DHT22;8478;49.208;8.806;2023-07-31T10:55:31;19.60;99.90
2050;DHT22;8478;49.208;8.806;2023-07-31T10:58:18;19.60;99.90
2050;DHT22;8478;49.208;8.806;2023-07-31T11:00:44;19.60;99.90
2050;DHT22;8478;49.208;8.806;2023-07-31T11:03:18;19.60;99.90
2050;DHT22;8478;49.208;8.806;2023-07-31T11:08:32;19.70;99.90
2050;DHT22;8478;49.208;8.806;2023-07-31T11:16:17;19.70;99.90
2050;DHT22;8478;49.208;8.806;2023-07-31T11:18:44;19.70;99.90
2050;DHT22;8478;49.208;8.806;2023-07-31T11:21:14;19.70;99.90
2050;DHT22;8478;49.208;8.806;2023-07-31T11:23:40;19.70;99.90
2050;DHT22;8478;49.208;8.806;2023-07-31T11:26:06;19.70;99.90
2050;DHT22;8478;49.208;8.806;2023-07-31T11:28:33;19.70;99.90
2050;DHT22;8478;49.208;8.806;2023-07-31T11:31:00;19.70;99.90
2050;DHT22;8478;49.208;8.806;2023-07-31T11:33:26;19.70;99.90
2050;DHT22;8478;49.208;8.806;2023-07-31T11:35:52;19.70;99.90
2050;DHT22;8478;49.208;8.806;2023-07-31T11:38:38;19.70;99.90
2050;DHT22;8478;49.208;8.806;2023-07-31T11:41:04;19.70;99.90
2050;DHT22;8478;49.208;8.806;2023-07-31T11:43:33;19.70;99.90
2050;DHT22;8478;49.208;8.806;2023-07-31T11:46:01;19.70;99.90
2050;DHT22;8478;49.208;8.806;2023-07-31T11:48:35;19.70;99.90
2050;DHT22;8478;49.208;8.806;2023-07-31T11:51:06;19.70;99.90
2050;DHT22;8478;49.208;8.806;2023-07-31T11:53:55;19.70;99.90
2050;DHT22;8478;49.208;8.806;2023-07-31T11:56:21;19.70;99.90
2050;DHT22;8478;49.208;8.806;2023-07-31T11:58:52;19.70;99.90
2050;DHT22;8478;49.208;8.806;2023-07-31T12:01:20;19.70;99.90
2050;DHT22;8478;49.208;8.806;2023-07-31T12:03:47;19.80;99.90
2050;DHT22;8478;49.208;8.806;2023-07-31T12:06:13;19.80;99.90
2050;DHT22;8478;49.208;8.806;2023-07-31T12:08:38;19.70;99.90
2050;DHT22;8478;49.208;8.806;2023-07-31T12:11:05;19.80;99.90
2050;DHT22;8478;49.208;8.806;2023-07-31T12:13:32;19.80;99.90
2050;DHT22;8478;49.208;8.806;2023-07-31T12:16:00;19.80;99.90
2050;DHT22;8478;49.208;8.806;2023-07-31T12:18:30;19.70;99.90
2050;DHT22;8478;49.208;8.806;2023-07-31T12:20:57;19.70;99.90
2050;DHT22;8478;49.208;8.806;2023-07-31T12:23:29;19.70;99.90
2050;DHT22;8478;49.208;8.806;2023-07-31T12:26:09;19.70;99.90
2050;DHT22;8478;49.208;8.806;2023-07-31T12:28:40;19.80;99.90
2050;DHT22;8478;49.208;8.806;2023-07-31T12:31:15;19.70;99.90
2050;DHT22;8478;49.208;8.806;2023-07-31T12:33:43;19.80;99.90
2050;DHT22;8478;49.208;8.806;2023-07-31T12:36:13;19.70;99.90
2050;DHT22;8478;49.208;8.806;2023-07-31T12:38:40;19.70;99.90
2050;DHT22;8478;49.208;8.806;2023-07-31T12:41:06;19.80;99.90
2050;DHT22;8478;49.208;8.806;2023-07-31T12:43:33;19.80;99.90
2050;DHT22;8478;49.208;8.806;2023-07-31T12:45:59;19.80;99.90
2050;DHT22;8478;49.208;8.806;2023-07-31T12:48:25;19.80;99.90
2050;DHT22;8478;49.208;8.806;2023-07-31T12:50:50;19.80;99.90
2050;DHT22;8478;49.208;8.806;2023-07-31T12:53:16;19.80;99.90
2050;DHT22;8478;49.208;8.806;2023-07-31T12:55:42;19.80;99.90
2050;DHT22;8478;49.208;8.806;2023-07-31T12:58:08;19.80;99.90
2050;DHT22;8478;49.208;8.806;2023-07-31T13:00:33;19.80;99.90
2050;DHT22;8478;49.208;8.806;2023-07-31T13:03:00;19.80;99.90
2050;DHT22;8478;49.208;8.806;2023-07-31T13:05:26;19.80;99.90
2050;DHT22;8478;49.208;8.806;2023-07-31T13:07:52;19.80;99.90
2050;DHT22;8478;49.208;8.806;2023-07-31T13:10:17;19.80;99.90
2050;DHT22;8478;49.208;8.806;2023-07-31T13:12:43;19.80;99.90
2050;DHT22;8478;49.208;8.806;2023-07-31T13:15:09;19.90;99.90
2050;DHT22;8478;49.208;8.806;2023-07-31T13:17:35;20.10;99.90
2050;DHT22;8478;49.208;8.806;2023-07-31T13:20:01;20.20;99.90
2050;DHT22;8478;49.208;8.806;2023-07-31T13:22:28;20.20;99.90
2050;DHT22;8478;49.208;8.806;2023-07-31T13:24:54;20.20;99.90
2050;DHT22;8478;49.208;8.806;2023-07-31T13:27:20;20.10;99.90
2050;DHT22;8478;49.208;8.806;2023-07-31T13:29:48;20.10;99.90
2050;DHT22;8478;49.208;8.806;2023-07-31T13:32:15;20.10;99.90
2050;DHT22;8478;49.208;8.806;2023-07-31T13:34:41;20.10;99.90
2050;DHT22;8478;49.208;8.806;2023-07-31T13:37:06;20.10;99.90
2050;DHT22;8478;49.208;8.806;2023-07-31T13:39:32;20.00;99.90
2050;DHT22;8478;49.208;8.806;2023-07-31T13:42:02;20.00;99.90
2050;DHT22;8478;49.208;8.806;2023-07-31T13:44:28;20.00;99.90
2050;DHT22;8478;49.208;8.806;2023-07-31T13:46:54;20.00;99.90
2050;DHT22;8478;49.208;8.806;2023-07-31T13:49:20;20.00;99.90
2050;DHT22;8478;49.208;8.806;2023-07-31T13:51:46;20.00;99.90
2050;DHT22;8478;49.208;8.806;2023-07-31T13:54:11;20.00;99.90
2050;DHT22;8478;49.208;8.806;2023-07-31T13:56:37;20.00;99.90
2050;DHT22;8478;49.208;8.806;2023-07-31T13:59:04;20.00;99.90
2050;DHT22;8478;49.208;8.806;2023-07-31T14:01:30;20.00;99.90
2050;DHT22;8478;49.208;8.806;2023-07-31T14:03:55;20.00;99.90
2050;DHT22;8478;49.208;8.806;2023-07-31T14:06:21;20.00;99.90
2050;DHT22;8478;49.208;8.806;2023-07-31T14:08:47;20.00;99.90
2050;DHT22;8478;49.208;8.806;2023-07-31T14:11:12;20.00;99.90
2050;DHT22;8478;49.208;8.806;2023-07-31T14:13:38;20.00;99.90
2050;DHT22;8478;49.208;8.806;2023-07-31T14:16:04;20.00;99.90
2050;DHT22;8478;49.208;8.806;2023-07-31T14:18:29;20.00;99.90
2050;DHT22;8478;49.208;8.806;2023-07-31T14:20:55;20.00;99.90
2050;DHT22;8478;49.208;8.806;2023-07-31T14:23:21;20.00;99.90
2050;DHT22;8478;49.208;8.806;2023-07-31T14:25:47;20.00;99.90
2050;DHT22;8478;49.208;8.806;2023-07-31T14:28:13;20.00;99.90
2050;DHT22;8478;49.208;8.806;2023-07-31T14:30:38;20.00;99.90
2050;DHT22;8478;49.208;8.806;2023-07-31T14:33:04;20.00;99.90
2050;DHT22;8478;49.208;8.806;2023-07-31T14:35:30;20.00;99.90
2050;DHT22;8478;49.208;8.806;2023-07-31T14:37:56;20.00;99.90
2050;DHT22;8478;49.208;8.806;2023-07-31T14:40:21;20.00;99.90
2050;DHT22;8478;49.208;8.806;2023-07-31T14:42:47;20.00;99.90
2050;DHT22;8478;49.208;8.806;2023-07-31T14:45:13;20.00;99.90
2050;DHT22;8478;49.208;8.806;2023-07-31T14:47:39;20.00;99.90
2050;DHT22;8478;49.208;8.806;2023-07-31T14:50:05;20.00;99.90
2050;DHT22;8478;49.208;8.806;2023-07-31T14:52:31;20.00;99.90
2050;DHT22;8478;49.208;8.806;2023-07-31T14:54:57;20.00;99.90
2050;DHT22;8478;49.208;8.806;2023-07-31T14:57:22;20.00;99.90
2050;DHT22;8478;49.208;8.806;2023-07-31T14:59:48;20.00;99.90
2050;DHT22;8478;49.208;8.806;2023-07-31T15:02:14;20.00;99.90
2050;DHT22;8478;49.208;8.806;2023-07-31T15:04:40;20.00;99.90
2050;DHT22;8478;49.208;8.806;2023-07-31T15:07:06;20.00;99.90
2050;DHT22;8478;49.208;8.806;2023-07-31T15:09:32;20.00;99.90
2050;DHT22;8478;49.208;8.806;2023-07-31T15:11:58;20.00;99.90
2050;DHT22;8478;49.208;8.806;2023-07-31T15:14:24;20.00;99.90
2050;DHT22;8478;49.208;8.806;2023-07-31T15:16:50;20.00;99.90
2050;DHT22;8478;49.208;8.806;2023-07-31T15:19:16;20.00;99.90
2050;DHT22;8478;49.208;8.806;2023-07-31T15:21:41;20.00;99.90
2050;DHT22;8478;49.208;8.806;2023-07-31T15:24:07;20.00;99.90
2050;DHT22;8478;49.208;8.806;2023-07-31T15:26:33;20.00;99.90
2050;DHT22;8478;49.208;8.806;2023-07-31T15:29:06;20.00;99.90
2050;DHT22;8478;49.208;8.806;2023-07-31T15:31:39;20.00;99.90
2050;DHT22;8478;49.208;8.806;2023-07-31T15:34:05;20.00;99.90
2050;DHT22;8478;49.208;8.806;2023-07-31T15:36:31;20.00;99.90
2050;DHT22;8478;49.208;8.806;2023-07-31T15:38:57;20.00;99.90
2050;DHT22;8478;49.208;8.806;2023-07-31T15:41:23;20.00;99.90
2050;DHT22;8478;49.208;8.806;2023-07-31T15:43:50;20.00;99.90
2050;DHT22;8478;49.208;8.806;2023-07-31T15:46:17;20.00;99.90
2050;DHT22;8478;49.208;8.806;2023-07-31T15:48:43;20.00;99.90
2050;DHT22;8478;49.208;8.806;2023-07-31T15:51:08;20.00;99.90
2050;DHT22;8478;49.208;8.806;2023-07-31T15:53:34;20.00;99.90
2050;DHT22;8478;49.208;8.806;2023-07-31T15:56:00;20.00;99.90
2050;DHT22;8478;49.208;8.806;2023-07-31T15:58:27;20.00;99.90
2050;DHT22;8478;49.208;8.806;2023-07-31T16:00:53;20.00;99.90
2050;DHT22;8478;49.208;8.806;2023-07-31T16:03:19;20.00;99.90
2050;DHT22;8478;49.208;8.806;2023-07-31T16:05:49;20.00;99.90
2050;DHT22;8478;49.208;8.806;2023-07-31T16:08:15;20.00;99.90
2050;DHT22;8478;49.208;8.806;2023-07-31T16:10:41;20.00;99.90
2050;DHT22;8478;49.208;8.806;2023-07-31T16:13:07;20.00;99.90
2050;DHT22;8478;49.208;8.806;2023-07-31T16:15:33;20.00;99.90
2050;DHT22;8478;49.208;8.806;2023-07-31T16:17:59;20.00;99.90